Time;durP1;ratioP1;P1;durP2;ratioP2;P2;SDS_P1;SDS_P2;PMS_P1;PMS_P2;Temp;Humidity;BMP_temperature;BMP_pressure;BME280_temperature;BME280_humidity;BME280_pressure;Samples;Min_cycle;Max_cycle;Signal;HPM_P1;HPM_P2
2023/08/17 00:00:39;;;;;;;6.47;3.10;;;;;;;;;;5108035;28;20518;-67
2023/08/17 00:03:06;;;;;;;6.10;3.10;;;;;;;;;;5102578;28;20450;-72
2023/08/17 00:05:33;;;;;;;9.73;3.50;;;;;;;;;;5112424;28;20496;-72
2023/08/17 00:08:00;;;;;;;11.70;3.37;;;;;;;;;;5101765;28;20476;-71
2023/08/17 00:10:27;;;;;;;6.07;2.83;;;;;;;;;;5102142;28;20613;-71
2023/08/17 00:12:53;;;;;;;9.33;2.70;;;;;;;;;;5102392;28;20479;-71
2023/08/17 00:15:19;;;;;;;5.77;3.60;;;;;;;;;;5106072;28;20989;-71
2023/08/17 00:17:47;;;;;;;8.60;3.03;;;;;;;;;;5105614;28;20512;-71
2023/08/17 00:20:14;;;;;;;6.43;3.27;;;;;;;;;;5102307;28;20470;-71
2023/08/17 00:22:40;;;;;;;6.97;3.90;;;;;;;;;;5101878;28;20439;-70
2023/08/17 00:25:07;;;;;;;6.97;3.20;;;;;;;;;;5102175;28;20517;-72
2023/08/17 00:27:34;;;;;;;9.20;3.70;;;;;;;;;;5101793;28;20490;-71
2023/08/17 00:30:00;;;;;;;5.80;3.80;;;;;;;;;;5102113;28;20482;-71
2023/08/17 00:32:26;;;;;;;8.33;3.97;;;;;;;;;;5102702;28;20503;-71
2023/08/17 00:34:54;;;;;;;8.43;4.30;;;;;;;;;;5113314;28;20541;-70
2023/08/17 00:37:21;;;;;;;5.00;3.07;;;;;;;;;;5107321;28;20533;-69
2023/08/17 00:39:47;;;;;;;5.60;3.93;;;;;;;;;;5101755;28;20493;-69
2023/08/17 00:42:13;;;;;;;7.87;3.60;;;;;;;;;;5106248;28;20893;-68
2023/08/17 00:44:40;;;;;;;9.67;3.87;;;;;;;;;;5101833;28;20550;-68
2023/08/17 00:47:06;;;;;;;5.67;3.90;;;;;;;;;;5101918;28;20467;-69
2023/08/17 00:49:33;;;;;;;5.67;3.03;;;;;;;;;;5094386;28;20542;-70
2023/08/17 00:52:01;;;;;;;5.00;3.40;;;;;;;;;;5101629;28;20529;-70
2023/08/17 00:54:28;;;;;;;8.63;3.70;;;;;;;;;;5101859;28;20483;-70
2023/08/17 00:56:54;;;;;;;7.73;3.80;;;;;;;;;;5101727;28;20535;-70
2023/08/17 00:59:21;;;;;;;6.43;3.80;;;;;;;;;;5101678;28;20463;-70
2023/08/17 01:01:48;;;;;;;5.50;4.13;;;;;;;;;;5102253;28;20479;-70
2023/08/17 01:04:14;;;;;;;10.23;4.57;;;;;;;;;;5111951;28;20450;-71
2023/08/17 01:06:41;;;;;;;9.60;4.37;;;;;;;;;;5102519;28;20542;-71
2023/08/17 01:09:09;;;;;;;4.50;3.67;;;;;;;;;;5100682;28;20558;-71
2023/08/17 01:11:38;;;;;;;6.97;4.13;;;;;;;;;;5100459;28;20931;-71
2023/08/17 01:14:06;;;;;;;6.60;4.37;;;;;;;;;;5095991;28;20534;-71
2023/08/17 01:16:48;;;;;;;4.20;3.63;;;;;;;;;;5100938;28;20482;-69
2023/08/17 01:19:19;;;;;;;8.40;4.20;;;;;;;;;;5096280;28;20542;-69
2023/08/17 01:21:50;;;;;;;4.07;3.63;;;;;;;;;;5109050;28;20471;-69
2023/08/17 01:24:18;;;;;;;7.40;4.43;;;;;;;;;;5100449;28;20512;-69
2023/08/17 01:26:44;;;;;;;5.37;4.07;;;;;;;;;;5100333;28;20451;-72
2023/08/17 01:29:11;;;;;;;6.60;4.60;;;;;;;;;;5101069;28;20478;-70
2023/08/17 01:31:41;;;;;;;10.13;4.60;;;;;;;;;;5096775;28;20435;-69
2023/08/17 01:34:09;;;;;;;7.50;4.33;;;;;;;;;;5101331;28;20451;-70
2023/08/17 01:36:37;;;;;;;7.40;4.33;;;;;;;;;;5101282;28;20459;-70
2023/08/17 01:39:05;;;;;;;5.60;4.23;;;;;;;;;;5093294;28;20479;-71
2023/08/17 01:41:33;;;;;;;6.97;4.40;;;;;;;;;;5098920;28;20451;-71
2023/08/17 01:44:00;;;;;;;8.07;4.90;;;;;;;;;;5100322;28;20546;-70
2023/08/17 01:46:30;;;;;;;8.00;5.00;;;;;;;;;;5100122;28;20565;-70
2023/08/17 01:48:57;;;;;;;7.67;4.70;;;;;;;;;;5100919;28;20534;-70
2023/08/17 01:51:24;;;;;;;6.40;4.83;;;;;;;;;;5100967;28;20451;-71
2023/08/17 01:53:50;;;;;;;10.70;4.90;;;;;;;;;;5100072;28;20455;-72
2023/08/17 01:56:17;;;;;;;4.37;3.97;;;;;;;;;;5102135;28;20486;-71
2023/08/17 01:58:44;;;;;;;6.27;3.90;;;;;;;;;;5100322;28;20491;-72
2023/08/17 02:01:11;;;;;;;6.57;4.40;;;;;;;;;;5100357;28;20490;-73
2023/08/17 02:03:37;;;;;;;5.70;4.57;;;;;;;;;;5100058;28;20510;-72
2023/08/17 02:06:04;;;;;;;7.10;4.27;;;;;;;;;;5100676;28;20511;-74
2023/08/17 02:08:30;;;;;;;6.87;4.47;;;;;;;;;;5099719;28;21334;-74
2023/08/17 02:10:56;;;;;;;8.27;4.30;;;;;;;;;;5100133;28;20523;-74
2023/08/17 02:13:23;;;;;;;6.80;4.30;;;;;;;;;;5099637;28;20508;-73
2023/08/17 02:15:51;;;;;;;6.07;4.43;;;;;;;;;;5106210;28;20486;-73
2023/08/17 02:18:17;;;;;;;6.00;4.57;;;;;;;;;;5093802;28;20478;-73
2023/08/17 02:20:43;;;;;;;6.20;4.20;;;;;;;;;;5102752;28;20471;-73
2023/08/17 02:23:10;;;;;;;5.13;4.60;;;;;;;;;;5106468;28;20550;-73
2023/08/17 02:25:38;;;;;;;6.60;4.37;;;;;;;;;;5099702;28;20487;-73
2023/08/17 02:28:05;;;;;;;5.03;4.10;;;;;;;;;;5099963;28;20510;-72
2023/08/17 02:30:31;;;;;;;10.93;4.50;;;;;;;;;;5100363;28;20483;-72
2023/08/17 02:32:59;;;;;;;6.23;4.53;;;;;;;;;;5102965;28;20479;-71
2023/08/17 02:35:26;;;;;;;7.90;5.13;;;;;;;;;;5100275;28;20486;-71
2023/08/17 02:37:52;;;;;;;7.30;4.00;;;;;;;;;;5099775;28;20531;-71
2023/08/17 02:40:19;;;;;;;10.30;4.87;;;;;;;;;;5100806;28;20522;-71
2023/08/17 02:42:45;;;;;;;7.43;4.90;;;;;;;;;;5099600;28;20565;-70
2023/08/17 02:45:11;;;;;;;7.73;5.00;;;;;;;;;;5100048;28;20609;-70
2023/08/17 02:47:38;;;;;;;7.80;5.27;;;;;;;;;;5100101;28;20463;-70
2023/08/17 02:50:06;;;;;;;10.30;5.40;;;;;;;;;;5108488;28;20510;-70
2023/08/17 02:52:33;;;;;;;6.30;5.00;;;;;;;;;;5101982;28;20530;-69
2023/08/17 02:54:59;;;;;;;7.80;4.90;;;;;;;;;;5103101;28;20455;-70
2023/08/17 02:57:25;;;;;;;11.63;5.20;;;;;;;;;;5100700;28;20443;-69
2023/08/17 02:59:52;;;;;;;6.27;4.40;;;;;;;;;;5100607;28;20526;-69
2023/08/17 03:02:18;;;;;;;11.87;4.43;;;;;;;;;;5097682;28;20530;-69
2023/08/17 03:04:45;;;;;;;13.40;5.60;;;;;;;;;;5100206;28;20470;-69
2023/08/17 03:07:12;;;;;;;10.97;5.27;;;;;;;;;;5099443;28;20455;-69
2023/08/17 03:09:39;;;;;;;7.20;4.50;;;;;;;;;;5100157;28;20451;-69
2023/08/17 03:12:05;;;;;;;8.63;5.17;;;;;;;;;;5099310;28;20451;-69
2023/08/17 03:14:32;;;;;;;6.00;5.00;;;;;;;;;;5100623;28;20514;-69
2023/08/17 03:16:58;;;;;;;7.77;4.13;;;;;;;;;;5100144;28;20443;-69
2023/08/17 03:19:25;;;;;;;5.60;5.03;;;;;;;;;;5099746;28;20887;-69
2023/08/17 03:21:51;;;;;;;5.60;4.90;;;;;;;;;;5099932;28;20489;-69
2023/08/17 03:24:19;;;;;;;6.50;4.67;;;;;;;;;;5099729;28;20482;-69
2023/08/17 03:26:45;;;;;;;8.40;5.80;;;;;;;;;;5099217;28;20582;-69
2023/08/17 03:29:11;;;;;;;12.40;5.37;;;;;;;;;;5100372;28;20554;-69
2023/08/17 03:31:38;;;;;;;7.93;4.87;;;;;;;;;;5106908;28;20453;-69
2023/08/17 03:34:04;;;;;;;5.30;4.80;;;;;;;;;;5101609;28;20482;-69
2023/08/17 03:36:31;;;;;;;6.63;5.50;;;;;;;;;;5100107;28;20545;-71
2023/08/17 03:38:57;;;;;;;12.40;5.17;;;;;;;;;;5099297;28;20539;-71
2023/08/17 03:41:25;;;;;;;7.40;5.63;;;;;;;;;;5099846;28;20510;-71
2023/08/17 03:43:51;;;;;;;7.70;5.50;;;;;;;;;;5101704;28;20551;-71
2023/08/17 03:46:18;;;;;;;6.13;4.90;;;;;;;;;;5103159;28;20518;-71
2023/08/17 03:48:44;;;;;;;6.17;5.57;;;;;;;;;;5104155;28;20512;-71
2023/08/17 03:51:11;;;;;;;9.87;5.27;;;;;;;;;;5104058;28;20512;-70
2023/08/17 03:53:37;;;;;;;9.47;5.77;;;;;;;;;;5103242;28;20893;-65
2023/08/17 03:56:04;;;;;;;6.93;4.93;;;;;;;;;;5102447;28;20479;-64
2023/08/17 03:58:34;;;;;;;6.17;4.83;;;;;;;;;;5103449;28;20483;-64
2023/08/17 04:01:00;;;;;;;12.17;5.03;;;;;;;;;;5114105;28;20462;-64
2023/08/17 04:03:27;;;;;;;9.40;6.00;;;;;;;;;;5104092;28;20941;-65
2023/08/17 04:05:53;;;;;;;8.53;6.00;;;;;;;;;;5102988;28;20569;-64
2023/08/17 04:08:19;;;;;;;7.77;5.37;;;;;;;;;;5103148;28;20530;-65
2023/08/17 04:10:46;;;;;;;7.87;5.87;;;;;;;;;;5102956;28;20510;-65
2023/08/17 04:13:12;;;;;;;8.70;5.57;;;;;;;;;;5102618;28;20475;-65
2023/08/17 04:15:40;;;;;;;9.73;5.70;;;;;;;;;;5102722;28;20498;-64
2023/08/17 04:18:06;;;;;;;8.30;6.27;;;;;;;;;;5106082;28;20746;-65
2023/08/17 04:20:33;;;;;;;7.90;6.50;;;;;;;;;;5103684;28;20835;-64
2023/08/17 04:22:59;;;;;;;11.10;6.70;;;;;;;;;;5103429;28;20530;-64
2023/08/17 04:25:25;;;;;;;10.50;6.83;;;;;;;;;;5102094;28;20525;-64
2023/08/17 04:27:52;;;;;;;10.13;5.93;;;;;;;;;;5101566;28;20545;-64
2023/08/17 04:30:18;;;;;;;12.10;6.10;;;;;;;;;;5101260;28;20535;-64
2023/08/17 04:32:50;;;;;;;10.60;6.17;;;;;;;;;;5104485;28;20506;-64
2023/08/17 04:35:17;;;;;;;7.30;5.27;;;;;;;;;;5099443;28;20455;-64
2023/08/17 04:37:43;;;;;;;10.13;6.07;;;;;;;;;;5099954;28;20542;-64
2023/08/17 04:40:10;;;;;;;7.80;5.90;;;;;;;;;;5099145;28;20454;-64
2023/08/17 04:42:36;;;;;;;7.30;5.50;;;;;;;;;;5100477;28;20458;-63
2023/08/17 04:45:03;;;;;;;7.50;5.53;;;;;;;;;;5100499;28;20523;-63
2023/08/17 04:47:29;;;;;;;10.43;5.70;;;;;;;;;;5100371;28;21066;-63
2023/08/17 04:49:57;;;;;;;6.63;6.03;;;;;;;;;;5100716;28;20609;-63
2023/08/17 04:52:23;;;;;;;8.27;5.60;;;;;;;;;;5101083;28;20522;-63
2023/08/17 04:54:50;;;;;;;13.20;6.00;;;;;;;;;;5099687;28;20499;-63
2023/08/17 04:57:17;;;;;;;9.07;6.57;;;;;;;;;;5105912;28;20542;-63
2023/08/17 04:59:44;;;;;;;9.10;5.93;;;;;;;;;;5100725;28;20454;-63
2023/08/17 05:02:10;;;;;;;7.57;5.80;;;;;;;;;;5100039;28;20612;-63
2023/08/17 05:04:36;;;;;;;10.73;5.90;;;;;;;;;;5101432;28;20479;-63
2023/08/17 05:07:04;;;;;;;9.73;6.27;;;;;;;;;;5100928;28;20539;-63
2023/08/17 05:09:31;;;;;;;9.23;5.67;;;;;;;;;;5099465;28;20479;-63
2023/08/17 05:11:57;;;;;;;8.83;5.93;;;;;;;;;;5099413;28;20466;-62
2023/08/17 05:14:24;;;;;;;7.73;5.37;;;;;;;;;;5097340;28;20473;-63
2023/08/17 05:16:50;;;;;;;7.57;5.67;;;;;;;;;;5099662;28;20550;-63
2023/08/17 05:19:16;;;;;;;6.93;5.30;;;;;;;;;;5100949;28;20530;-63
2023/08/17 05:21:43;;;;;;;7.47;5.57;;;;;;;;;;5092849;28;20534;-63
2023/08/17 05:24:11;;;;;;;9.93;5.30;;;;;;;;;;5102520;28;20473;-63
2023/08/17 05:26:37;;;;;;;11.40;5.33;;;;;;;;;;5099217;28;20667;-63
2023/08/17 05:29:04;;;;;;;8.87;5.50;;;;;;;;;;5102307;28;20542;-63
2023/08/17 05:31:30;;;;;;;7.20;5.03;;;;;;;;;;5099194;28;20542;-64
2023/08/17 05:33:57;;;;;;;7.00;5.97;;;;;;;;;;5095432;28;20990;-63
2023/08/17 05:36:23;;;;;;;7.80;5.93;;;;;;;;;;5095945;28;20491;-64
2023/08/17 05:38:49;;;;;;;7.60;6.40;;;;;;;;;;5100575;28;20478;-63
2023/08/17 05:41:17;;;;;;;5.93;5.30;;;;;;;;;;5099302;28;20508;-63
2023/08/17 05:43:44;;;;;;;7.90;5.77;;;;;;;;;;5099470;28;20447;-64
2023/08/17 05:46:10;;;;;;;9.87;5.43;;;;;;;;;;5099575;28;20491;-63
2023/08/17 05:48:37;;;;;;;12.20;5.43;;;;;;;;;;5099345;28;20507;-63
2023/08/17 05:51:03;;;;;;;6.70;6.10;;;;;;;;;;5102226;28;20979;-63
2023/08/17 05:53:30;;;;;;;8.40;5.50;;;;;;;;;;5099130;28;20486;-63
2023/08/17 05:55:56;;;;;;;8.80;5.63;;;;;;;;;;5099153;28;20487;-63
2023/08/17 05:58:24;;;;;;;10.40;6.17;;;;;;;;;;5099583;28;20447;-63
2023/08/17 06:00:51;;;;;;;9.20;6.60;;;;;;;;;;5099226;28;20880;-63
2023/08/17 06:03:17;;;;;;;12.57;6.90;;;;;;;;;;5098798;28;20451;-63
2023/08/17 06:05:43;;;;;;;7.07;6.30;;;;;;;;;;5099442;28;20542;-63
2023/08/17 06:08:10;;;;;;;9.30;5.90;;;;;;;;;;5099204;28;20460;-63
2023/08/17 06:10:36;;;;;;;7.67;6.30;;;;;;;;;;5099674;28;20527;-63
2023/08/17 06:13:03;;;;;;;7.97;6.90;;;;;;;;;;5099728;28;20506;-63
2023/08/17 06:15:31;;;;;;;14.87;6.77;;;;;;;;;;5103336;28;20568;-63
2023/08/17 06:17:57;;;;;;;8.20;7.07;;;;;;;;;;5101021;28;20474;-63
2023/08/17 06:20:23;;;;;;;11.50;7.70;;;;;;;;;;5099761;28;20983;-63
2023/08/17 06:22:50;;;;;;;13.60;7.90;;;;;;;;;;5102868;28;20473;-63
2023/08/17 06:25:16;;;;;;;9.50;7.13;;;;;;;;;;5103678;28;20530;-63
2023/08/17 06:27:43;;;;;;;13.47;8.00;;;;;;;;;;5099636;28;20527;-63
2023/08/17 06:30:10;;;;;;;13.67;9.53;;;;;;;;;;5100605;28;20459;-64
2023/08/17 06:32:38;;;;;;;10.90;8.20;;;;;;;;;;5106600;28;20526;-63
2023/08/17 06:35:04;;;;;;;10.97;7.77;;;;;;;;;;5099845;28;20462;-63
2023/08/17 06:37:31;;;;;;;9.07;8.20;;;;;;;;;;5098764;28;20943;-64
2023/08/17 06:39:57;;;;;;;13.70;8.63;;;;;;;;;;5099128;28;20486;-64
2023/08/17 06:42:23;;;;;;;11.03;8.83;;;;;;;;;;5099896;28;20553;-63
2023/08/17 06:44:50;;;;;;;13.60;8.00;;;;;;;;;;5099643;28;20526;-63
2023/08/17 06:47:16;;;;;;;9.97;7.53;;;;;;;;;;5094328;28;20483;-62
2023/08/17 06:49:44;;;;;;;12.07;9.20;;;;;;;;;;5099599;28;20814;-64
2023/08/17 06:52:10;;;;;;;14.70;9.90;;;;;;;;;;5099747;28;20435;-63
2023/08/17 06:54:37;;;;;;;14.13;9.30;;;;;;;;;;5099040;28;20990;-63
2023/08/17 06:57:04;;;;;;;12.20;9.40;;;;;;;;;;5106854;28;20447;-63
2023/08/17 06:59:30;;;;;;;14.67;10.40;;;;;;;;;;5099114;28;20514;-63
2023/08/17 07:01:57;;;;;;;16.87;9.77;;;;;;;;;;5097057;28;20471;-63
2023/08/17 07:04:24;;;;;;;12.83;8.70;;;;;;;;;;5093358;28;20454;-63
2023/08/17 07:06:52;;;;;;;13.13;10.87;;;;;;;;;;5099016;28;20486;-64
2023/08/17 07:09:18;;;;;;;12.20;10.10;;;;;;;;;;5098848;28;20459;-63
2023/08/17 07:11:45;;;;;;;18.03;10.37;;;;;;;;;;5102047;28;20823;-63
2023/08/17 07:14:12;;;;;;;18.90;12.17;;;;;;;;;;5099484;28;20546;-63
2023/08/17 07:16:39;;;;;;;14.50;10.43;;;;;;;;;;5098361;28;20485;-64
2023/08/17 07:19:05;;;;;;;15.33;12.50;;;;;;;;;;5102318;28;20650;-63
2023/08/17 07:21:31;;;;;;;15.47;12.40;;;;;;;;;;5106833;28;20462;-64
2023/08/17 07:24:11;;;;;;;16.73;12.47;;;;;;;;;;5093488;28;20494;-63
2023/08/17 07:26:38;;;;;;;16.03;12.23;;;;;;;;;;5103090;28;20554;-63
2023/08/17 07:29:04;;;;;;;17.30;11.67;;;;;;;;;;5104702;28;20586;-63
2023/08/17 07:31:33;;;;;;;14.97;12.60;;;;;;;;;;5102566;28;20511;-64
2023/08/17 07:33:59;;;;;;;19.30;13.10;;;;;;;;;;5103485;28;20447;-63
2023/08/17 07:36:26;;;;;;;15.70;14.07;;;;;;;;;;5104474;28;20450;-63
2023/08/17 07:38:52;;;;;;;16.30;12.43;;;;;;;;;;5102121;28;20451;-63
2023/08/17 07:41:20;;;;;;;18.40;13.17;;;;;;;;;;5103110;28;20550;-64
2023/08/17 07:43:46;;;;;;;17.80;13.23;;;;;;;;;;5104664;28;20890;-63
2023/08/17 07:46:13;;;;;;;17.80;13.87;;;;;;;;;;5102123;28;20481;-64
2023/08/17 07:48:39;;;;;;;19.57;12.87;;;;;;;;;;5114973;28;20447;-64
2023/08/17 07:51:06;;;;;;;18.73;14.47;;;;;;;;;;5107780;28;20465;-64
2023/08/17 07:53:32;;;;;;;21.90;14.43;;;;;;;;;;5101406;28;20494;-64
2023/08/17 07:55:58;;;;;;;18.20;14.67;;;;;;;;;;5102953;28;20491;-64
2023/08/17 07:58:26;;;;;;;18.90;13.53;;;;;;;;;;5102785;28;20446;-63
2023/08/17 08:00:52;;;;;;;22.97;14.90;;;;;;;;;;5101618;28;20546;-64
2023/08/17 08:03:19;;;;;;;15.77;12.83;;;;;;;;;;5102925;28;20599;-64
2023/08/17 08:05:45;;;;;;;16.33;12.77;;;;;;;;;;5102354;28;20483;-64
2023/08/17 08:08:12;;;;;;;17.80;13.60;;;;;;;;;;5101432;28;20521;-64
2023/08/17 08:10:38;;;;;;;16.93;13.30;;;;;;;;;;5118178;28;20450;-64
2023/08/17 08:13:05;;;;;;;14.03;12.37;;;;;;;;;;5108267;28;20475;-64
2023/08/17 08:15:33;;;;;;;13.70;12.30;;;;;;;;;;5101785;28;20500;-64
2023/08/17 08:18:00;;;;;;;12.53;11.17;;;;;;;;;;5100175;28;20897;-64
2023/08/17 08:20:26;;;;;;;11.50;10.30;;;;;;;;;;5109701;28;20486;-64
2023/08/17 08:22:53;;;;;;;13.70;11.20;;;;;;;;;;5101566;28;20470;-64
2023/08/17 08:25:19;;;;;;;14.83;11.77;;;;;;;;;;5102214;28;20466;-64
2023/08/17 08:27:45;;;;;;;15.83;10.37;;;;;;;;;;5102336;28;20534;-64
2023/08/17 08:30:12;;;;;;;11.73;10.53;;;;;;;;;;5100802;28;20947;-64
2023/08/17 08:32:40;;;;;;;12.83;10.43;;;;;;;;;;5102319;28;20494;-64
2023/08/17 08:35:06;;;;;;;10.97;9.83;;;;;;;;;;5104143;28;20474;-64
2023/08/17 08:37:33;;;;;;;13.93;11.30;;;;;;;;;;5100657;28;20478;-64
2023/08/17 08:39:59;;;;;;;11.47;10.37;;;;;;;;;;5102004;28;20485;-64
2023/08/17 08:42:26;;;;;;;11.60;10.40;;;;;;;;;;5102136;28;20451;-64
2023/08/17 08:44:52;;;;;;;12.00;10.80;;;;;;;;;;5101753;28;21025;-64
2023/08/17 08:47:19;;;;;;;14.50;10.50;;;;;;;;;;5102287;28;20536;-64
2023/08/17 08:49:50;;;;;;;13.10;11.33;;;;;;;;;;5102314;28;20511;-64
2023/08/17 08:52:20;;;;;;;11.87;10.37;;;;;;;;;;5101751;28;20458;-64
2023/08/17 08:54:50;;;;;;;13.13;10.33;;;;;;;;;;5091573;28;20455;-64
2023/08/17 08:57:18;;;;;;;11.47;10.20;;;;;;;;;;5101911;28;20483;-64
2023/08/17 08:59:46;;;;;;;12.50;9.70;;;;;;;;;;5101053;28;20752;-64
2023/08/17 09:02:14;;;;;;;10.77;9.50;;;;;;;;;;5102986;28;20485;-64
2023/08/17 09:04:41;;;;;;;10.87;9.10;;;;;;;;;;5101627;28;20481;-64
2023/08/17 09:07:10;;;;;;;10.50;9.50;;;;;;;;;;5100728;28;20507;-64
2023/08/17 09:09:36;;;;;;;10.23;9.07;;;;;;;;;;5101952;28;20959;-65
2023/08/17 09:12:03;;;;;;;11.33;10.20;;;;;;;;;;5100820;28;20442;-64
2023/08/17 09:14:29;;;;;;;11.00;9.53;;;;;;;;;;5100859;28;20952;-64
2023/08/17 09:16:58;;;;;;;10.43;9.40;;;;;;;;;;5104368;28;20458;-64
2023/08/17 09:19:25;;;;;;;9.70;8.70;;;;;;;;;;5109830;28;20454;-64
2023/08/17 09:21:51;;;;;;;12.60;9.07;;;;;;;;;;5103462;28;20681;-64
2023/08/17 09:24:19;;;;;;;10.80;9.50;;;;;;;;;;5100923;28;20463;-64
2023/08/17 09:26:46;;;;;;;11.60;10.30;;;;;;;;;;5100038;28;20458;-64
2023/08/17 09:29:19;;;;;;;10.83;9.53;;;;;;;;;;5100636;28;20843;-64
2023/08/17 09:31:46;;;;;;;12.23;9.67;;;;;;;;;;5101517;28;20502;-64
2023/08/17 09:34:12;;;;;;;12.20;11.00;;;;;;;;;;5101522;28;20488;-64
2023/08/17 09:36:39;;;;;;;13.00;10.93;;;;;;;;;;5099492;28;20487;-64
2023/08/17 09:39:06;;;;;;;11.10;10.00;;;;;;;;;;5100493;28;20486;-64
2023/08/17 09:41:41;;;;;;;16.23;11.03;;;;;;;;;;5101651;28;20489;-64
2023/08/17 09:44:08;;;;;;;12.43;11.20;;;;;;;;;;5101914;28;20462;-64
2023/08/17 09:46:34;;;;;;;11.43;9.30;;;;;;;;;;5101176;28;20466;-64
2023/08/17 09:49:04;;;;;;;11.93;10.73;;;;;;;;;;5101238;28;20471;-64
2023/08/17 09:51:30;;;;;;;11.93;10.73;;;;;;;;;;5099935;28;20508;-64
2023/08/17 09:53:57;;;;;;;12.60;11.20;;;;;;;;;;5100013;28;20463;-64
2023/08/17 09:56:24;;;;;;;14.47;11.60;;;;;;;;;;5112227;28;20529;-64
2023/08/17 09:58:52;;;;;;;15.77;12.83;;;;;;;;;;5100652;28;20447;-63
2023/08/17 10:01:19;;;;;;;12.80;11.60;;;;;;;;;;5100459;28;20582;-64
2023/08/17 10:03:46;;;;;;;14.27;12.37;;;;;;;;;;5100941;28;20483;-64
2023/08/17 10:06:13;;;;;;;13.60;11.40;;;;;;;;;;5101048;28;20479;-64
2023/08/17 10:08:42;;;;;;;13.83;11.27;;;;;;;;;;5099052;28;20582;-64
2023/08/17 10:11:09;;;;;;;16.33;11.00;;;;;;;;;;5098907;28;20461;-64
2023/08/17 10:13:36;;;;;;;15.00;10.97;;;;;;;;;;5098402;28;20612;-64
2023/08/17 10:16:10;;;;;;;13.63;12.20;;;;;;;;;;5099839;28;20494;-64
2023/08/17 10:18:39;;;;;;;13.20;11.83;;;;;;;;;;5098395;28;20485;-64
2023/08/17 10:21:08;;;;;;;13.33;11.97;;;;;;;;;;5098971;28;20510;-65
2023/08/17 10:23:35;;;;;;;13.20;11.90;;;;;;;;;;5099450;28;20483;-64
2023/08/17 10:26:02;;;;;;;12.37;11.07;;;;;;;;;;5097842;28;20519;-64
2023/08/17 10:28:29;;;;;;;11.53;10.47;;;;;;;;;;5097926;28;20490;-64
2023/08/17 10:30:56;;;;;;;15.23;12.60;;;;;;;;;;5101807;28;20673;-64
2023/08/17 10:33:24;;;;;;;12.80;11.57;;;;;;;;;;5101248;28;20519;-64
2023/08/17 10:35:50;;;;;;;12.77;11.47;;;;;;;;;;5101763;28;20569;-64
2023/08/17 10:38:17;;;;;;;11.20;10.10;;;;;;;;;;5098715;28;20504;-64
2023/08/17 10:40:44;;;;;;;12.37;11.17;;;;;;;;;;5096988;28;20531;-64
2023/08/17 10:43:12;;;;;;;11.47;10.37;;;;;;;;;;5098788;28;20542;-64
2023/08/17 10:45:39;;;;;;;12.40;10.80;;;;;;;;;;5102194;28;20508;-64
2023/08/17 10:48:24;;;;;;;11.47;10.33;;;;;;;;;;5100055;28;20471;-64
2023/08/17 10:51:01;;;;;;;10.60;9.50;;;;;;;;;;5098476;28;20523;-64
2023/08/17 10:53:28;;;;;;;13.30;10.30;;;;;;;;;;5096772;28;20466;-64
2023/08/17 10:55:58;;;;;;;11.50;10.30;;;;;;;;;;5102744;28;20455;-64
2023/08/17 10:58:24;;;;;;;11.23;10.23;;;;;;;;;;5096110;28;20443;-64
2023/08/17 11:00:55;;;;;;;11.20;10.10;;;;;;;;;;5097790;28;20481;-64
2023/08/17 11:03:22;;;;;;;11.53;10.43;;;;;;;;;;5104435;28;20482;-64
2023/08/17 11:05:52;;;;;;;11.20;10.10;;;;;;;;;;5098863;28;20989;-64
2023/08/17 11:08:23;;;;;;;10.87;9.87;;;;;;;;;;5102545;28;20513;-63
2023/08/17 11:10:57;;;;;;;13.10;11.37;;;;;;;;;;5099818;28;20797;-63
2023/08/17 11:13:24;;;;;;;11.97;10.40;;;;;;;;;;5092746;28;20447;-63
2023/08/17 11:15:51;;;;;;;12.60;11.40;;;;;;;;;;5099448;28;20470;-63
2023/08/17 11:18:17;;;;;;;12.10;10.90;;;;;;;;;;5100091;28;20506;-63
2023/08/17 11:20:44;;;;;;;13.90;11.47;;;;;;;;;;5098715;28;20491;-63
2023/08/17 11:23:11;;;;;;;13.60;12.40;;;;;;;;;;5099316;28;20519;-63
2023/08/17 11:25:39;;;;;;;14.57;13.03;;;;;;;;;;5099572;28;20441;-63
2023/08/17 11:28:07;;;;;;;14.03;12.70;;;;;;;;;;5105654;28;20491;-64
2023/08/17 11:30:35;;;;;;;13.60;12.30;;;;;;;;;;5099513;28;20451;-63
2023/08/17 11:33:02;;;;;;;15.30;13.80;;;;;;;;;;5099669;28;20516;-63
2023/08/17 11:35:28;;;;;;;14.00;12.70;;;;;;;;;;5097946;28;20995;-63
2023/08/17 11:37:54;;;;;;;14.17;12.70;;;;;;;;;;5097945;28;21080;-63
2023/08/17 11:40:21;;;;;;;14.13;12.73;;;;;;;;;;5099245;28;20450;-63
2023/08/17 11:42:49;;;;;;;13.90;12.23;;;;;;;;;;5102602;28;20459;-64
2023/08/17 11:45:15;;;;;;;14.33;12.97;;;;;;;;;;5099500;28;21306;-63
2023/08/17 11:47:43;;;;;;;14.17;12.77;;;;;;;;;;5098407;28;20490;-64
2023/08/17 11:50:10;;;;;;;12.77;11.67;;;;;;;;;;5097617;28;20481;-63
2023/08/17 11:52:36;;;;;;;14.83;11.70;;;;;;;;;;5095833;28;20462;-63
2023/08/17 11:55:04;;;;;;;12.90;11.70;;;;;;;;;;5098405;28;20514;-63
2023/08/17 11:57:30;;;;;;;12.73;11.53;;;;;;;;;;5097864;28;20508;-63
2023/08/17 11:59:59;;;;;;;12.20;11.00;;;;;;;;;;5098133;28;20466;-63
2023/08/17 12:02:26;;;;;;;12.00;10.17;;;;;;;;;;5098622;28;20446;-63
2023/08/17 12:04:52;;;;;;;12.57;11.37;;;;;;;;;;5098421;28;20473;-63
2023/08/17 12:07:19;;;;;;;12.27;10.90;;;;;;;;;;5108775;28;20499;-63
2023/08/17 12:09:46;;;;;;;11.47;10.33;;;;;;;;;;5102042;28;20483;-63
2023/08/17 12:12:12;;;;;;;11.80;9.80;;;;;;;;;;5101585;28;20483;-63
2023/08/17 12:14:41;;;;;;;11.40;10.00;;;;;;;;;;5102713;28;20477;-63
2023/08/17 12:17:14;;;;;;;12.13;10.90;;;;;;;;;;5102248;28;20458;-63
2023/08/17 12:19:40;;;;;;;10.80;9.67;;;;;;;;;;5101574;28;20531;-64
2023/08/17 12:22:07;;;;;;;10.87;9.77;;;;;;;;;;5101314;28;20474;-63
2023/08/17 12:24:34;;;;;;;12.10;10.30;;;;;;;;;;5101136;28;20740;-64
2023/08/17 12:27:01;;;;;;;11.07;9.90;;;;;;;;;;5101993;28;20475;-64
2023/08/17 12:29:28;;;;;;;10.20;9.00;;;;;;;;;;5102882;28;21036;-65
2023/08/17 12:31:55;;;;;;;10.00;9.00;;;;;;;;;;5101953;28;20538;-65
2023/08/17 12:34:22;;;;;;;9.80;8.90;;;;;;;;;;5100391;28;20515;-65
2023/08/17 12:36:49;;;;;;;16.03;9.83;;;;;;;;;;5099671;28;20479;-65
2023/08/17 12:39:16;;;;;;;12.60;9.23;;;;;;;;;;5103408;28;20446;-64
2023/08/17 12:41:42;;;;;;;10.30;9.30;;;;;;;;;;5105598;28;20914;-64
2023/08/17 12:44:12;;;;;;;10.57;9.47;;;;;;;;;;5102070;28;20955;-64
2023/08/17 12:46:38;;;;;;;9.60;8.70;;;;;;;;;;5102261;28;20459;-64
2023/08/17 12:49:04;;;;;;;9.80;9.00;;;;;;;;;;5101433;28;20475;-64
2023/08/17 12:51:32;;;;;;;9.47;8.50;;;;;;;;;;5101991;28;20897;-64
2023/08/17 12:53:59;;;;;;;11.20;10.00;;;;;;;;;;5101702;28;20459;-63
2023/08/17 12:56:25;;;;;;;9.70;8.70;;;;;;;;;;5100509;28;20459;-64
2023/08/17 12:58:51;;;;;;;9.57;8.60;;;;;;;;;;5101789;28;20474;-64
2023/08/17 13:01:18;;;;;;;12.43;10.00;;;;;;;;;;5107215;28;20451;-64
2023/08/17 13:03:45;;;;;;;9.60;8.60;;;;;;;;;;5101544;28;20454;-64
2023/08/17 13:06:11;;;;;;;10.47;9.30;;;;;;;;;;5101250;28;21310;-64
2023/08/17 13:08:39;;;;;;;9.47;8.57;;;;;;;;;;5100827;28;20483;-64
2023/08/17 13:11:06;;;;;;;9.10;8.20;;;;;;;;;;5099417;28;20455;-64
2023/08/17 13:13:32;;;;;;;9.00;7.53;;;;;;;;;;5100257;28;20494;-64
2023/08/17 13:15:59;;;;;;;8.27;7.47;;;;;;;;;;5101106;28;20708;-64
2023/08/17 13:18:26;;;;;;;8.50;7.40;;;;;;;;;;5100979;28;20467;-64
2023/08/17 13:20:52;;;;;;;8.70;7.80;;;;;;;;;;5100919;28;20689;-64
2023/08/17 13:23:19;;;;;;;9.60;8.60;;;;;;;;;;5109006;28;20448;-64
2023/08/17 13:25:47;;;;;;;9.90;7.73;;;;;;;;;;5100419;28;20912;-64
2023/08/17 13:28:14;;;;;;;8.90;8.00;;;;;;;;;;5101298;28;20503;-64
2023/08/17 13:30:40;;;;;;;9.80;8.40;;;;;;;;;;5101433;28;20451;-64
2023/08/17 13:33:07;;;;;;;10.70;9.17;;;;;;;;;;5100306;28;21004;-64
2023/08/17 13:35:33;;;;;;;8.30;7.40;;;;;;;;;;5101809;28;20479;-64
2023/08/17 13:38:02;;;;;;;10.00;8.77;;;;;;;;;;5100801;28;20476;-64
2023/08/17 13:40:29;;;;;;;8.73;7.47;;;;;;;;;;5100439;28;20526;-64
2023/08/17 13:42:58;;;;;;;9.10;7.77;;;;;;;;;;5103825;28;20485;-64
2023/08/17 13:45:24;;;;;;;9.83;7.03;;;;;;;;;;5100810;28;20527;-64
2023/08/17 13:47:51;;;;;;;7.73;6.67;;;;;;;;;;5094733;28;20471;-64
2023/08/17 13:50:18;;;;;;;10.40;6.40;;;;;;;;;;5099928;28;20474;-64
2023/08/17 13:52:44;;;;;;;10.53;6.10;;;;;;;;;;5100550;28;20466;-65
2023/08/17 13:55:11;;;;;;;8.30;7.40;;;;;;;;;;5099222;28;20516;-64
2023/08/17 13:57:38;;;;;;;8.10;6.40;;;;;;;;;;5100532;28;20617;-64
2023/08/17 14:00:07;;;;;;;9.10;7.00;;;;;;;;;;5094812;28;20502;-64
2023/08/17 14:02:33;;;;;;;7.40;5.97;;;;;;;;;;5099538;28;20975;-64
2023/08/17 14:05:00;;;;;;;7.83;6.30;;;;;;;;;;5104582;28;20451;-64
2023/08/17 14:07:27;;;;;;;9.37;6.80;;;;;;;;;;5109109;28;20458;-64
2023/08/17 14:09:53;;;;;;;6.80;6.10;;;;;;;;;;5099398;28;20490;-64
2023/08/17 14:12:20;;;;;;;8.33;6.80;;;;;;;;;;5099574;28;20458;-64
2023/08/17 14:14:46;;;;;;;8.00;7.20;;;;;;;;;;5103038;28;20458;-63
2023/08/17 14:17:14;;;;;;;9.57;7.50;;;;;;;;;;5105212;28;20457;-63
2023/08/17 14:19:42;;;;;;;10.90;8.50;;;;;;;;;;5103896;28;20523;-64
2023/08/17 14:22:09;;;;;;;11.77;8.57;;;;;;;;;;5098844;28;20458;-63
2023/08/17 14:24:35;;;;;;;10.90;8.70;;;;;;;;;;5099290;28;20961;-64
2023/08/17 14:27:02;;;;;;;10.30;7.83;;;;;;;;;;5099340;28;20862;-64
2023/08/17 14:29:29;;;;;;;9.20;7.80;;;;;;;;;;5099927;28;20501;-64